sensor_id;sensor_type;location;lat;lon;timestamp;P1;durP1;ratioP1;P2;durP2;ratioP2
45970;SDS011;31681;48.982;8.394;2022-08-01T00:02:26;4.38;;;2.28;;
45970;SDS011;31681;48.982;8.394;2022-08-01T00:04:53;3.15;;;2.65;;
45970;SDS011;31681;48.982;8.394;2022-08-01T00:07:18;2.63;;;2.40;;
45970;SDS011;31681;48.982;8.394;2022-08-01T00:09:43;2.90;;;2.47;;
45970;SDS011;31681;48.982;8.394;2022-08-01T00:12:08;2.83;;;2.50;;
45970;SDS011;31681;48.982;8.394;2022-08-01T00:14:33;2.63;;;2.43;;
45970;SDS011;31681;48.982;8.394;2022-08-01T00:16:59;4.57;;;2.63;;
45970;SDS011;31681;48.982;8.394;2022-08-01T00:19:24;2.67;;;2.40;;
45970;SDS011;31681;48.982;8.394;2022-08-01T00:21:49;3.10;;;2.13;;
45970;SDS011;31681;48.982;8.394;2022-08-01T00:24:14;3.60;;;2.37;;
45970;SDS011;31681;48.982;8.394;2022-08-01T00:26:39;3.10;;;2.40;;
45970;SDS011;31681;48.982;8.394;2022-08-01T00:29:05;4.40;;;2.30;;
45970;SDS011;31681;48.982;8.394;2022-08-01T00:31:30;3.07;;;2.77;;
45970;SDS011;31681;48.982;8.394;2022-08-01T00:33:55;2.50;;;2.28;;
45970;SDS011;31681;48.982;8.394;2022-08-01T00:36:20;5.57;;;2.63;;
45970;SDS011;31681;48.982;8.394;2022-08-01T00:38:45;3.53;;;2.57;;
45970;SDS011;31681;48.982;8.394;2022-08-01T00:41:11;2.53;;;2.33;;
45970;SDS011;31681;48.982;8.394;2022-08-01T00:43:36;3.10;;;2.40;;
45970;SDS011;31681;48.982;8.394;2022-08-01T00:46:01;3.30;;;2.70;;
45970;SDS011;31681;48.982;8.394;2022-08-01T00:48:26;3.30;;;2.90;;
45970;SDS011;31681;48.982;8.394;2022-08-01T00:50:52;2.67;;;2.47;;
45970;SDS011;31681;48.982;8.394;2022-08-01T00:53:17;2.43;;;2.20;;
45970;SDS011;31681;48.982;8.394;2022-08-01T00:55:42;3.53;;;2.40;;
45970;SDS011;31681;48.982;8.394;2022-08-01T00:58:07;3.88;;;2.67;;
45970;SDS011;31681;48.982;8.394;2022-08-01T01:00:33;3.47;;;2.83;;
45970;SDS011;31681;48.982;8.394;2022-08-01T01:02:59;3.13;;;2.40;;
45970;SDS011;31681;48.982;8.394;2022-08-01T01:05:24;2.53;;;2.33;;
45970;SDS011;31681;48.982;8.394;2022-08-01T01:07:59;4.00;;;2.73;;
45970;SDS011;31681;48.982;8.394;2022-08-01T01:15:28;3.00;;;2.70;;
45970;SDS011;31681;48.982;8.394;2022-08-01T01:18:29;3.08;;;2.45;;
45970;SDS011;31681;48.982;8.394;2022-08-01T01:23:39;3.33;;;2.80;;
45970;SDS011;31681;48.982;8.394;2022-08-01T01:26:17;4.22;;;2.83;;
45970;SDS011;31681;48.982;8.394;2022-08-01T01:29:05;2.83;;;2.50;;
45970;SDS011;31681;48.982;8.394;2022-08-01T01:31:33;4.15;;;2.55;;
45970;SDS011;31681;48.982;8.394;2022-08-01T01:34:01;3.35;;;2.42;;
45970;SDS011;31681;48.982;8.394;2022-08-01T01:36:27;3.22;;;2.40;;
45970;SDS011;31681;48.982;8.394;2022-08-01T01:38:53;5.13;;;2.80;;
45970;SDS011;31681;48.982;8.394;2022-08-01T01:41:19;3.03;;;2.50;;
45970;SDS011;31681;48.982;8.394;2022-08-01T01:43:46;3.70;;;2.80;;
45970;SDS011;31681;48.982;8.394;2022-08-01T01:46:12;5.07;;;2.83;;
45970;SDS011;31681;48.982;8.394;2022-08-01T01:48:40;3.72;;;2.92;;
45970;SDS011;31681;48.982;8.394;2022-08-01T01:51:08;4.57;;;2.80;;
45970;SDS011;31681;48.982;8.394;2022-08-01T01:53:33;3.42;;;2.88;;
45970;SDS011;31681;48.982;8.394;2022-08-01T01:56:00;6.22;;;2.90;;
45970;SDS011;31681;48.982;8.394;2022-08-01T01:58:25;3.30;;;3.00;;
45970;SDS011;31681;48.982;8.394;2022-08-01T02:00:52;3.33;;;2.80;;
45970;SDS011;31681;48.982;8.394;2022-08-01T02:03:18;3.95;;;2.60;;
45970;SDS011;31681;48.982;8.394;2022-08-01T02:05:44;4.53;;;3.15;;
45970;SDS011;31681;48.982;8.394;2022-08-01T02:08:10;2.67;;;2.47;;
45970;SDS011;31681;48.982;8.394;2022-08-01T02:10:36;3.42;;;2.65;;
45970;SDS011;31681;48.982;8.394;2022-08-01T02:13:03;3.80;;;2.72;;
45970;SDS011;31681;48.982;8.394;2022-08-01T02:15:29;5.65;;;3.08;;
45970;SDS011;31681;48.982;8.394;2022-08-01T02:17:55;4.30;;;2.95;;
45970;SDS011;31681;48.982;8.394;2022-08-01T02:20:21;3.08;;;2.47;;
45970;SDS011;31681;48.982;8.394;2022-08-01T02:22:47;3.08;;;2.53;;
45970;SDS011;31681;48.982;8.394;2022-08-01T02:25:23;3.25;;;2.78;;
45970;SDS011;31681;48.982;8.394;2022-08-01T02:28:01;4.15;;;2.83;;
45970;SDS011;31681;48.982;8.394;2022-08-01T02:30:30;4.30;;;2.97;;
45970;SDS011;31681;48.982;8.394;2022-08-01T02:33:02;3.85;;;2.75;;
45970;SDS011;31681;48.982;8.394;2022-08-01T02:35:28;3.00;;;2.70;;
45970;SDS011;31681;48.982;8.394;2022-08-01T02:37:55;3.45;;;2.92;;
45970;SDS011;31681;48.982;8.394;2022-08-01T02:40:21;5.80;;;3.20;;
45970;SDS011;31681;48.982;8.394;2022-08-01T02:42:48;4.28;;;3.40;;
45970;SDS011;31681;48.982;8.394;2022-08-01T02:45:14;5.93;;;3.22;;
45970;SDS011;31681;48.982;8.394;2022-08-01T02:47:40;4.30;;;2.97;;
45970;SDS011;31681;48.982;8.394;2022-08-01T02:50:06;3.13;;;2.80;;
45970;SDS011;31681;48.982;8.394;2022-08-01T02:52:33;5.10;;;3.10;;
45970;SDS011;31681;48.982;8.394;2022-08-01T02:54:58;3.03;;;2.72;;
45970;SDS011;31681;48.982;8.394;2022-08-01T02:57:24;4.28;;;3.20;;
45970;SDS011;31681;48.982;8.394;2022-08-01T02:59:51;6.13;;;2.95;;
45970;SDS011;31681;48.982;8.394;2022-08-01T03:02:17;5.47;;;3.13;;
45970;SDS011;31681;48.982;8.394;2022-08-01T03:04:44;3.08;;;2.83;;
45970;SDS011;31681;48.982;8.394;2022-08-01T03:07:10;4.78;;;2.92;;
45970;SDS011;31681;48.982;8.394;2022-08-01T03:09:37;3.55;;;3.25;;
45970;SDS011;31681;48.982;8.394;2022-08-01T03:12:03;5.10;;;3.10;;
45970;SDS011;31681;48.982;8.394;2022-08-01T03:14:29;3.65;;;3.03;;
45970;SDS011;31681;48.982;8.394;2022-08-01T03:16:56;3.45;;;3.15;;
45970;SDS011;31681;48.982;8.394;2022-08-01T03:19:23;5.38;;;2.90;;
45970;SDS011;31681;48.982;8.394;2022-08-01T03:21:49;3.78;;;3.35;;
45970;SDS011;31681;48.982;8.394;2022-08-01T03:24:15;5.03;;;3.53;;
45970;SDS011;31681;48.982;8.394;2022-08-01T03:26:41;4.53;;;3.00;;
45970;SDS011;31681;48.982;8.394;2022-08-01T03:29:08;4.57;;;2.97;;
45970;SDS011;31681;48.982;8.394;2022-08-01T03:31:35;4.30;;;3.15;;
45970;SDS011;31681;48.982;8.394;2022-08-01T03:34:01;3.25;;;2.95;;
45970;SDS011;31681;48.982;8.394;2022-08-01T03:36:26;3.70;;;3.30;;
45970;SDS011;31681;48.982;8.394;2022-08-01T03:38:54;3.80;;;3.15;;
45970;SDS011;31681;48.982;8.394;2022-08-01T03:41:21;3.67;;;3.03;;
45970;SDS011;31681;48.982;8.394;2022-08-01T03:43:47;4.60;;;2.97;;
45970;SDS011;31681;48.982;8.394;2022-08-01T03:46:15;6.43;;;3.25;;
45970;SDS011;31681;48.982;8.394;2022-08-01T03:48:43;5.05;;;3.10;;
45970;SDS011;31681;48.982;8.394;2022-08-01T03:51:11;4.85;;;3.38;;
45970;SDS011;31681;48.982;8.394;2022-08-01T03:53:37;4.18;;;3.55;;
45970;SDS011;31681;48.982;8.394;2022-08-01T03:56:03;4.85;;;3.70;;
45970;SDS011;31681;48.982;8.394;2022-08-01T03:58:29;5.60;;;3.13;;
45970;SDS011;31681;48.982;8.394;2022-08-01T04:00:55;7.82;;;3.50;;
45970;SDS011;31681;48.982;8.394;2022-08-01T04:03:20;5.70;;;3.22;;
45970;SDS011;31681;48.982;8.394;2022-08-01T04:05:45;3.58;;;3.13;;
45970;SDS011;31681;48.982;8.394;2022-08-01T04:08:11;3.90;;;3.17;;
45970;SDS011;31681;48.982;8.394;2022-08-01T04:10:36;3.60;;;3.30;;
45970;SDS011;31681;48.982;8.394;2022-08-01T04:13:01;6.45;;;3.50;;
45970;SDS011;31681;48.982;8.394;2022-08-01T04:15:27;3.25;;;2.72;;
45970;SDS011;31681;48.982;8.394;2022-08-01T04:17:53;5.07;;;3.60;;
45970;SDS011;31681;48.982;8.394;2022-08-01T04:20:19;5.45;;;3.55;;
45970;SDS011;31681;48.982;8.394;2022-08-01T04:22:44;4.32;;;3.42;;
45970;SDS011;31681;48.982;8.394;2022-08-01T04:25:17;3.40;;;3.10;;
45970;SDS011;31681;48.982;8.394;2022-08-01T04:27:46;5.75;;;3.20;;
45970;SDS011;31681;48.982;8.394;2022-08-01T04:30:11;5.97;;;3.30;;
45970;SDS011;31681;48.982;8.394;2022-08-01T04:32:38;4.45;;;3.30;;
45970;SDS011;31681;48.982;8.394;2022-08-01T04:35:07;6.30;;;3.72;;
45970;SDS011;31681;48.982;8.394;2022-08-01T04:37:34;4.60;;;3.28;;
45970;SDS011;31681;48.982;8.394;2022-08-01T04:40:02;4.90;;;3.17;;
45970;SDS011;31681;48.982;8.394;2022-08-01T04:42:28;4.88;;;3.55;;
45970;SDS011;31681;48.982;8.394;2022-08-01T04:44:53;3.45;;;3.10;;
45970;SDS011;31681;48.982;8.394;2022-08-01T04:47:18;5.20;;;3.10;;
45970;SDS011;31681;48.982;8.394;2022-08-01T04:49:44;5.03;;;3.25;;
45970;SDS011;31681;48.982;8.394;2022-08-01T04:52:10;4.82;;;3.65;;
45970;SDS011;31681;48.982;8.394;2022-08-01T04:54:36;3.22;;;2.92;;
45970;SDS011;31681;48.982;8.394;2022-08-01T04:57:04;4.60;;;3.28;;
45970;SDS011;31681;48.982;8.394;2022-08-01T04:59:30;5.07;;;3.28;;
45970;SDS011;31681;48.982;8.394;2022-08-01T05:02:04;4.93;;;3.47;;
45970;SDS011;31681;48.982;8.394;2022-08-01T05:04:29;5.00;;;3.90;;
45970;SDS011;31681;48.982;8.394;2022-08-01T05:06:54;6.47;;;3.90;;
45970;SDS011;31681;48.982;8.394;2022-08-01T05:09:20;7.23;;;4.00;;
45970;SDS011;31681;48.982;8.394;2022-08-01T05:11:45;5.93;;;3.70;;
45970;SDS011;31681;48.982;8.394;2022-08-01T05:14:10;7.97;;;3.75;;
45970;SDS011;31681;48.982;8.394;2022-08-01T05:16:35;4.23;;;3.67;;
45970;SDS011;31681;48.982;8.394;2022-08-01T05:19:01;6.25;;;3.72;;
45970;SDS011;31681;48.982;8.394;2022-08-01T05:21:27;4.68;;;3.92;;
45970;SDS011;31681;48.982;8.394;2022-08-01T05:23:52;5.63;;;3.95;;
45970;SDS011;31681;48.982;8.394;2022-08-01T05:26:18;5.23;;;3.60;;
45970;SDS011;31681;48.982;8.394;2022-08-01T05:28:43;7.22;;;3.65;;
45970;SDS011;31681;48.982;8.394;2022-08-01T05:31:08;3.90;;;3.60;;
45970;SDS011;31681;48.982;8.394;2022-08-01T05:33:33;6.20;;;3.92;;
45970;SDS011;31681;48.982;8.394;2022-08-01T05:35:58;4.97;;;3.50;;
45970;SDS011;31681;48.982;8.394;2022-08-01T05:38:24;6.10;;;4.00;;
45970;SDS011;31681;48.982;8.394;2022-08-01T05:40:49;6.22;;;4.15;;
45970;SDS011;31681;48.982;8.394;2022-08-01T05:43:14;4.68;;;3.40;;
45970;SDS011;31681;48.982;8.394;2022-08-01T05:45:39;7.28;;;3.80;;
45970;SDS011;31681;48.982;8.394;2022-08-01T05:48:06;6.85;;;3.30;;
45970;SDS011;31681;48.982;8.394;2022-08-01T05:50:32;8.50;;;3.45;;
45970;SDS011;31681;48.982;8.394;2022-08-01T05:52:57;9.30;;;3.53;;
45970;SDS011;31681;48.982;8.394;2022-08-01T05:55:22;5.77;;;3.40;;
45970;SDS011;31681;48.982;8.394;2022-08-01T05:57:47;3.80;;;3.40;;
45970;SDS011;31681;48.982;8.394;2022-08-01T06:00:14;4.68;;;3.00;;
45970;SDS011;31681;48.982;8.394;2022-08-01T06:02:44;4.20;;;3.45;;
45970;SDS011;31681;48.982;8.394;2022-08-01T06:05:09;3.53;;;2.97;;
45970;SDS011;31681;48.982;8.394;2022-08-01T06:07:34;6.47;;;3.08;;
45970;SDS011;31681;48.982;8.394;2022-08-01T06:09:59;3.95;;;3.08;;
45970;SDS011;31681;48.982;8.394;2022-08-01T06:12:25;3.77;;;3.00;;
45970;SDS011;31681;48.982;8.394;2022-08-01T06:14:50;5.93;;;3.40;;
45970;SDS011;31681;48.982;8.394;2022-08-01T06:17:15;5.07;;;2.97;;
45970;SDS011;31681;48.982;8.394;2022-08-01T06:19:40;6.03;;;3.00;;
45970;SDS011;31681;48.982;8.394;2022-08-01T06:22:05;5.72;;;2.72;;
45970;SDS011;31681;48.982;8.394;2022-08-01T06:24:31;4.23;;;2.73;;
45970;SDS011;31681;48.982;8.394;2022-08-01T06:26:56;3.57;;;2.60;;
45970;SDS011;31681;48.982;8.394;2022-08-01T06:29:21;3.97;;;2.67;;
45970;SDS011;31681;48.982;8.394;2022-08-01T06:31:46;5.50;;;2.88;;
45970;SDS011;31681;48.982;8.394;2022-08-01T06:34:11;4.77;;;3.00;;
45970;SDS011;31681;48.982;8.394;2022-08-01T06:36:37;3.45;;;2.72;;
45970;SDS011;31681;48.982;8.394;2022-08-01T06:39:02;4.10;;;2.80;;
45970;SDS011;31681;48.982;8.394;2022-08-01T06:41:27;5.90;;;2.60;;
45970;SDS011;31681;48.982;8.394;2022-08-01T06:43:52;3.30;;;3.00;;
45970;SDS011;31681;48.982;8.394;2022-08-01T06:46:18;3.25;;;2.83;;
45970;SDS011;31681;48.982;8.394;2022-08-01T06:48:43;3.83;;;3.37;;
45970;SDS011;31681;48.982;8.394;2022-08-01T06:51:08;4.40;;;3.40;;
45970;SDS011;31681;48.982;8.394;2022-08-01T06:53:36;5.13;;;3.72;;
45970;SDS011;31681;48.982;8.394;2022-08-01T06:56:02;8.40;;;6.35;;
45970;SDS011;31681;48.982;8.394;2022-08-01T06:58:27;10.15;;;7.65;;
45970;SDS011;31681;48.982;8.394;2022-08-01T07:00:53;15.93;;;9.32;;
45970;SDS011;31681;48.982;8.394;2022-08-01T07:03:18;15.00;;;9.18;;
45970;SDS011;31681;48.982;8.394;2022-08-01T07:05:43;12.10;;;8.40;;
45970;SDS011;31681;48.982;8.394;2022-08-01T07:08:08;9.20;;;7.32;;
45970;SDS011;31681;48.982;8.394;2022-08-01T07:10:33;9.43;;;6.50;;
45970;SDS011;31681;48.982;8.394;2022-08-01T07:12:59;7.60;;;5.83;;
45970;SDS011;31681;48.982;8.394;2022-08-01T07:15:24;6.43;;;5.70;;
45970;SDS011;31681;48.982;8.394;2022-08-01T07:17:51;6.68;;;4.57;;
45970;SDS011;31681;48.982;8.394;2022-08-01T07:20:16;7.25;;;4.43;;
45970;SDS011;31681;48.982;8.394;2022-08-01T07:22:41;10.53;;;6.00;;
45970;SDS011;31681;48.982;8.394;2022-08-01T07:25:07;5.22;;;4.57;;
45970;SDS011;31681;48.982;8.394;2022-08-01T07:27:32;6.35;;;4.28;;
45970;SDS011;31681;48.982;8.394;2022-08-01T07:29:58;5.68;;;3.85;;
45970;SDS011;31681;48.982;8.394;2022-08-01T07:32:23;5.88;;;4.30;;
45970;SDS011;31681;48.982;8.394;2022-08-01T07:34:49;8.70;;;3.72;;
45970;SDS011;31681;48.982;8.394;2022-08-01T07:37:14;4.15;;;3.75;;
45970;SDS011;31681;48.982;8.394;2022-08-01T07:39:39;4.97;;;3.67;;
45970;SDS011;31681;48.982;8.394;2022-08-01T07:42:04;4.90;;;3.27;;
45970;SDS011;31681;48.982;8.394;2022-08-01T07:44:29;3.60;;;3.25;;
45970;SDS011;31681;48.982;8.394;2022-08-01T07:46:55;5.43;;;3.43;;
45970;SDS011;31681;48.982;8.394;2022-08-01T07:49:20;3.37;;;3.07;;
45970;SDS011;31681;48.982;8.394;2022-08-01T07:51:46;7.57;;;3.05;;
45970;SDS011;31681;48.982;8.394;2022-08-01T07:54:12;6.10;;;2.90;;
45970;SDS011;31681;48.982;8.394;2022-08-01T07:56:37;6.27;;;2.70;;
45970;SDS011;31681;48.982;8.394;2022-08-01T07:59:02;4.47;;;3.25;;
45970;SDS011;31681;48.982;8.394;2022-08-01T08:01:27;3.67;;;2.57;;
45970;SDS011;31681;48.982;8.394;2022-08-01T08:03:53;4.35;;;2.55;;
45970;SDS011;31681;48.982;8.394;2022-08-01T08:06:18;6.40;;;2.40;;
45970;SDS011;31681;48.982;8.394;2022-08-01T08:08:43;2.23;;;1.90;;
45970;SDS011;31681;48.982;8.394;2022-08-01T08:11:09;2.22;;;1.88;;
45970;SDS011;31681;48.982;8.394;2022-08-01T08:13:34;2.23;;;1.93;;
45970;SDS011;31681;48.982;8.394;2022-08-01T08:15:59;4.43;;;1.90;;
45970;SDS011;31681;48.982;8.394;2022-08-01T08:18:25;3.03;;;1.90;;
45970;SDS011;31681;48.982;8.394;2022-08-01T08:20:50;2.65;;;2.05;;
45970;SDS011;31681;48.982;8.394;2022-08-01T08:23:15;2.15;;;1.92;;
45970;SDS011;31681;48.982;8.394;2022-08-01T08:25:59;3.38;;;1.80;;
45970;SDS011;31681;48.982;8.394;2022-08-01T08:28:24;3.23;;;1.60;;
45970;SDS011;31681;48.982;8.394;2022-08-01T08:30:49;3.35;;;2.22;;
45970;SDS011;31681;48.982;8.394;2022-08-01T08:33:15;2.83;;;1.90;;
45970;SDS011;31681;48.982;8.394;2022-08-01T08:35:40;4.43;;;1.80;;
45970;SDS011;31681;48.982;8.394;2022-08-01T08:38:06;4.03;;;2.03;;
45970;SDS011;31681;48.982;8.394;2022-08-01T08:40:31;1.83;;;1.67;;
45970;SDS011;31681;48.982;8.394;2022-08-01T08:42:59;3.15;;;1.83;;
45970;SDS011;31681;48.982;8.394;2022-08-01T08:45:25;1.85;;;1.73;;
45970;SDS011;31681;48.982;8.394;2022-08-01T08:47:51;3.88;;;1.83;;
45970;SDS011;31681;48.982;8.394;2022-08-01T08:50:17;2.03;;;1.77;;
45970;SDS011;31681;48.982;8.394;2022-08-01T08:52:42;6.85;;;2.22;;
45970;SDS011;31681;48.982;8.394;2022-08-01T08:55:08;2.25;;;2.05;;
45970;SDS011;31681;48.982;8.394;2022-08-01T08:57:33;4.80;;;1.90;;
45970;SDS011;31681;48.982;8.394;2022-08-01T08:59:59;2.13;;;1.75;;
45970;SDS011;31681;48.982;8.394;2022-08-01T09:02:24;2.40;;;2.15;;
45970;SDS011;31681;48.982;8.394;2022-08-01T09:04:50;2.13;;;1.73;;
45970;SDS011;31681;48.982;8.394;2022-08-01T09:07:15;4.38;;;2.10;;
45970;SDS011;31681;48.982;8.394;2022-08-01T09:09:41;3.30;;;1.83;;
45970;SDS011;31681;48.982;8.394;2022-08-01T09:12:06;3.13;;;2.00;;
45970;SDS011;31681;48.982;8.394;2022-08-01T09:14:31;3.70;;;2.08;;
45970;SDS011;31681;48.982;8.394;2022-08-01T09:19:25;6.63;;;2.40;;
45970;SDS011;31681;48.982;8.394;2022-08-01T09:21:59;2.67;;;1.90;;
45970;SDS011;31681;48.982;8.394;2022-08-01T09:24:25;1.75;;;1.65;;
45970;SDS011;31681;48.982;8.394;2022-08-01T09:26:51;1.80;;;1.70;;
45970;SDS011;31681;48.982;8.394;2022-08-01T09:29:19;2.75;;;2.35;;
45970;SDS011;31681;48.982;8.394;2022-08-01T09:31:44;2.97;;;1.85;;
45970;SDS011;31681;48.982;8.394;2022-08-01T09:34:10;2.90;;;1.90;;
45970;SDS011;31681;48.982;8.394;2022-08-01T09:36:49;4.47;;;2.58;;
45970;SDS011;31681;48.982;8.394;2022-08-01T09:39:19;2.35;;;1.95;;
45970;SDS011;31681;48.982;8.394;2022-08-01T09:41:45;2.83;;;1.80;;
45970;SDS011;31681;48.982;8.394;2022-08-01T09:44:10;4.32;;;2.00;;
45970;SDS011;31681;48.982;8.394;2022-08-01T09:46:36;1.73;;;1.60;;
45970;SDS011;31681;48.982;8.394;2022-08-01T09:49:02;2.22;;;1.80;;
45970;SDS011;31681;48.982;8.394;2022-08-01T09:53:56;1.98;;;1.65;;
45970;SDS011;31681;48.982;8.394;2022-08-01T09:56:21;2.10;;;1.73;;
45970;SDS011;31681;48.982;8.394;2022-08-01T09:58:57;3.05;;;1.90;;
45970;SDS011;31681;48.982;8.394;2022-08-01T10:01:22;2.20;;;1.92;;
45970;SDS011;31681;48.982;8.394;2022-08-01T10:04:03;4.22;;;2.50;;
45970;SDS011;31681;48.982;8.394;2022-08-01T10:06:28;4.05;;;2.33;;
45970;SDS011;31681;48.982;8.394;2022-08-01T10:08:54;3.53;;;1.60;;
45970;SDS011;31681;48.982;8.394;2022-08-01T10:11:19;2.53;;;1.70;;
45970;SDS011;31681;48.982;8.394;2022-08-01T10:13:46;3.45;;;1.90;;
45970;SDS011;31681;48.982;8.394;2022-08-01T10:16:12;2.35;;;2.15;;
45970;SDS011;31681;48.982;8.394;2022-08-01T10:18:37;2.00;;;1.80;;
45970;SDS011;31681;48.982;8.394;2022-08-01T10:21:05;2.35;;;2.08;;
45970;SDS011;31681;48.982;8.394;2022-08-01T10:23:33;2.55;;;1.60;;
45970;SDS011;31681;48.982;8.394;2022-08-01T10:25:59;4.72;;;2.30;;
45970;SDS011;31681;48.982;8.394;2022-08-01T10:28:25;2.40;;;2.13;;
45970;SDS011;31681;48.982;8.394;2022-08-01T10:30:51;3.38;;;2.03;;
45970;SDS011;31681;48.982;8.394;2022-08-01T10:33:16;2.78;;;1.95;;
45970;SDS011;31681;48.982;8.394;2022-08-01T10:35:42;2.20;;;1.90;;
45970;SDS011;31681;48.982;8.394;2022-08-01T10:38:10;4.07;;;1.88;;
45970;SDS011;31681;48.982;8.394;2022-08-01T10:40:35;2.65;;;1.80;;
45970;SDS011;31681;48.982;8.394;2022-08-01T10:43:02;2.28;;;1.90;;
45970;SDS011;31681;48.982;8.394;2022-08-01T10:45:27;2.63;;;1.88;;
45970;SDS011;31681;48.982;8.394;2022-08-01T10:47:57;4.65;;;3.08;;
45970;SDS011;31681;48.982;8.394;2022-08-01T10:50:44;3.30;;;2.20;;
45970;SDS011;31681;48.982;8.394;2022-08-01T10:58:26;3.03;;;2.47;;
45970;SDS011;31681;48.982;8.394;2022-08-01T11:03:35;3.22;;;2.00;;
45970;SDS011;31681;48.982;8.394;2022-08-01T11:06:01;2.25;;;1.85;;
45970;SDS011;31681;48.982;8.394;2022-08-01T11:08:28;4.47;;;2.08;;
45970;SDS011;31681;48.982;8.394;2022-08-01T11:11:02;3.95;;;2.30;;
45970;SDS011;31681;48.982;8.394;2022-08-01T11:16:24;3.03;;;2.67;;
45970;SDS011;31681;48.982;8.394;2022-08-01T11:18:50;4.88;;;4.30;;
45970;SDS011;31681;48.982;8.394;2022-08-01T11:21:16;3.10;;;2.80;;
45970;SDS011;31681;48.982;8.394;2022-08-01T11:23:47;2.55;;;2.35;;
45970;SDS011;31681;48.982;8.394;2022-08-01T11:26:13;2.55;;;2.35;;
45970;SDS011;31681;48.982;8.394;2022-08-01T11:28:38;2.90;;;2.70;;
45970;SDS011;31681;48.982;8.394;2022-08-01T11:38:36;2.78;;;1.80;;
45970;SDS011;31681;48.982;8.394;2022-08-01T11:41:11;2.40;;;1.95;;
45970;SDS011;31681;48.982;8.394;2022-08-01T11:43:53;2.60;;;1.80;;
45970;SDS011;31681;48.982;8.394;2022-08-01T11:46:19;2.72;;;2.05;;
45970;SDS011;31681;48.982;8.394;2022-08-01T11:48:44;3.58;;;2.10;;
45970;SDS011;31681;48.982;8.394;2022-08-01T11:51:15;2.78;;;2.08;;
45970;SDS011;31681;48.982;8.394;2022-08-01T11:53:45;3.35;;;2.13;;
45970;SDS011;31681;48.982;8.394;2022-08-01T11:56:11;4.32;;;2.40;;
45970;SDS011;31681;48.982;8.394;2022-08-01T11:58:36;3.95;;;2.10;;
45970;SDS011;31681;48.982;8.394;2022-08-01T12:01:01;3.63;;;2.00;;
45970;SDS011;31681;48.982;8.394;2022-08-01T12:03:28;2.53;;;2.28;;
45970;SDS011;31681;48.982;8.394;2022-08-01T12:06:00;1.90;;;1.70;;
45970;SDS011;31681;48.982;8.394;2022-08-01T12:08:27;2.70;;;2.15;;
45970;SDS011;31681;48.982;8.394;2022-08-01T12:10:53;3.13;;;2.80;;
45970;SDS011;31681;48.982;8.394;2022-08-01T12:13:19;2.95;;;1.85;;
45970;SDS011;31681;48.982;8.394;2022-08-01T12:16:07;3.25;;;2.00;;
45970;SDS011;31681;48.982;8.394;2022-08-01T12:18:37;2.50;;;1.80;;
45970;SDS011;31681;48.982;8.394;2022-08-01T12:21:03;2.90;;;1.98;;
45970;SDS011;31681;48.982;8.394;2022-08-01T12:23:29;2.65;;;2.33;;
45970;SDS011;31681;48.982;8.394;2022-08-01T12:25:54;2.40;;;1.80;;
45970;SDS011;31681;48.982;8.394;2022-08-01T12:28:20;2.77;;;1.90;;
45970;SDS011;31681;48.982;8.394;2022-08-01T12:30:46;2.78;;;2.13;;
45970;SDS011;31681;48.982;8.394;2022-08-01T12:33:16;3.35;;;1.95;;
45970;SDS011;31681;48.982;8.394;2022-08-01T12:35:41;2.20;;;1.52;;
45970;SDS011;31681;48.982;8.394;2022-08-01T12:38:13;3.25;;;2.10;;
45970;SDS011;31681;48.982;8.394;2022-08-01T12:40:43;2.30;;;1.65;;
45970;SDS011;31681;48.982;8.394;2022-08-01T12:43:08;1.67;;;1.50;;
45970;SDS011;31681;48.982;8.394;2022-08-01T12:45:38;4.28;;;1.70;;
45970;SDS011;31681;48.982;8.394;2022-08-01T12:48:10;3.15;;;1.80;;
45970;SDS011;31681;48.982;8.394;2022-08-01T12:50:36;1.70;;;1.50;;
45970;SDS011;31681;48.982;8.394;2022-08-01T12:53:02;2.03;;;1.73;;
45970;SDS011;31681;48.982;8.394;2022-08-01T12:55:27;2.07;;;1.60;;
45970;SDS011;31681;48.982;8.394;2022-08-01T12:58:09;4.80;;;1.70;;
45970;SDS011;31681;48.982;8.394;2022-08-01T13:00:35;3.50;;;1.48;;
45970;SDS011;31681;48.982;8.394;2022-08-01T13:03:08;2.22;;;1.63;;
45970;SDS011;31681;48.982;8.394;2022-08-01T13:05:55;1.77;;;1.65;;
45970;SDS011;31681;48.982;8.394;2022-08-01T13:08:23;1.42;;;1.33;;
45970;SDS011;31681;48.982;8.394;2022-08-01T13:10:49;1.55;;;1.40;;
45970;SDS011;31681;48.982;8.394;2022-08-01T13:13:14;1.48;;;1.30;;
45970;SDS011;31681;48.982;8.394;2022-08-01T13:15:41;1.73;;;1.40;;
45970;SDS011;31681;48.982;8.394;2022-08-01T13:21:37;2.38;;;1.33;;
45970;SDS011;31681;48.982;8.394;2022-08-01T13:23:38;4.10;;;1.63;;
45970;SDS011;31681;48.982;8.394;2022-08-01T13:26:04;2.08;;;1.60;;
45970;SDS011;31681;48.982;8.394;2022-08-01T13:28:29;1.60;;;1.50;;
45970;SDS011;31681;48.982;8.394;2022-08-01T13:33:21;2.00;;;1.40;;
45970;SDS011;31681;48.982;8.394;2022-08-01T13:35:48;2.75;;;1.40;;
45970;SDS011;31681;48.982;8.394;2022-08-01T13:38:14;2.22;;;1.23;;
45970;SDS011;31681;48.982;8.394;2022-08-01T13:40:39;1.43;;;1.23;;
45970;SDS011;31681;48.982;8.394;2022-08-01T13:43:04;1.77;;;1.20;;
45970;SDS011;31681;48.982;8.394;2022-08-01T13:45:29;1.40;;;1.30;;
45970;SDS011;31681;48.982;8.394;2022-08-01T13:47:55;2.43;;;1.17;;
45970;SDS011;31681;48.982;8.394;2022-08-01T13:50:20;1.90;;;1.33;;
45970;SDS011;31681;48.982;8.394;2022-08-01T13:52:45;1.17;;;1.07;;
45970;SDS011;31681;48.982;8.394;2022-08-01T13:55:10;2.10;;;1.10;;
45970;SDS011;31681;48.982;8.394;2022-08-01T13:57:35;1.40;;;1.30;;
45970;SDS011;31681;48.982;8.394;2022-08-01T14:00:01;1.33;;;1.23;;
45970;SDS011;31681;48.982;8.394;2022-08-01T14:02:26;2.25;;;1.30;;
45970;SDS011;31681;48.982;8.394;2022-08-01T14:04:52;3.00;;;1.10;;
45970;SDS011;31681;48.982;8.394;2022-08-01T14:07:17;1.33;;;1.23;;
45970;SDS011;31681;48.982;8.394;2022-08-01T14:09:43;1.20;;;1.10;;
45970;SDS011;31681;48.982;8.394;2022-08-01T14:12:08;2.10;;;1.10;;
45970;SDS011;31681;48.982;8.394;2022-08-01T14:14:33;1.20;;;1.10;;
45970;SDS011;31681;48.982;8.394;2022-08-01T14:16:59;1.57;;;1.23;;
45970;SDS011;31681;48.982;8.394;2022-08-01T14:19:24;2.23;;;1.20;;
45970;SDS011;31681;48.982;8.394;2022-08-01T14:21:49;2.37;;;1.20;;
45970;SDS011;31681;48.982;8.394;2022-08-01T14:24:18;1.55;;;1.42;;
45970;SDS011;31681;48.982;8.394;2022-08-01T14:26:45;1.77;;;1.23;;
45970;SDS011;31681;48.982;8.394;2022-08-01T14:29:13;1.52;;;1.30;;
45970;SDS011;31681;48.982;8.394;2022-08-01T14:31:54;1.20;;;1.10;;
45970;SDS011;31681;48.982;8.394;2022-08-01T14:34:41;4.30;;;1.25;;
45970;SDS011;31681;48.982;8.394;2022-08-01T14:37:07;4.00;;;1.10;;
45970;SDS011;31681;48.982;8.394;2022-08-01T14:40:01;1.20;;;1.10;;
45970;SDS011;31681;48.982;8.394;2022-08-01T14:42:33;1.20;;;1.10;;
45970;SDS011;31681;48.982;8.394;2022-08-01T14:44:58;2.20;;;1.20;;
45970;SDS011;31681;48.982;8.394;2022-08-01T14:47:24;2.00;;;1.30;;
45970;SDS011;31681;48.982;8.394;2022-08-01T14:49:49;1.58;;;1.30;;
45970;SDS011;31681;48.982;8.394;2022-08-01T14:52:15;1.45;;;1.10;;
45970;SDS011;31681;48.982;8.394;2022-08-01T14:54:40;1.25;;;1.15;;
45970;SDS011;31681;48.982;8.394;2022-08-01T14:57:05;1.97;;;1.20;;
45970;SDS011;31681;48.982;8.394;2022-08-01T14:59:30;1.25;;;1.10;;
45970;SDS011;31681;48.982;8.394;2022-08-01T15:01:56;2.17;;;1.07;;
45970;SDS011;31681;48.982;8.394;2022-08-01T15:04:21;1.47;;;0.93;;
45970;SDS011;31681;48.982;8.394;2022-08-01T15:06:46;1.40;;;1.30;;
45970;SDS011;31681;48.982;8.394;2022-08-01T15:09:11;1.77;;;1.30;;
45970;SDS011;31681;48.982;8.394;2022-08-01T15:11:37;2.47;;;1.47;;
45970;SDS011;31681;48.982;8.394;2022-08-01T15:14:02;2.42;;;1.10;;
45970;SDS011;31681;48.982;8.394;2022-08-01T15:16:46;3.60;;;1.20;;
45970;SDS011;31681;48.982;8.394;2022-08-01T15:19:12;1.35;;;1.20;;
45970;SDS011;31681;48.982;8.394;2022-08-01T15:21:37;1.13;;;1.07;;
45970;SDS011;31681;48.982;8.394;2022-08-01T15:24:02;2.17;;;1.27;;